Poway, California
Current Conditions -  °F | °C
As of 8:24 PM on Monday 20 Oct 2014 (Local Time) from KNKX Reporting Station
Broken Clouds Broken Clouds  
Wind Chill: 66°   Ceiling: 1300
Heat Index: 66°   Visibility: 10mi
Dew Point: 60°   Wind: 5mph
Humidity: 81%   Direction: 290°WNW
Pressure: 29.91"   Gusts: NA
Location:  32.95°N, 117.04°W
Report Text: KNKX 210324Z 29004KT 10SM BKN013 19/16 A2991 RMK AO2 T01890156
Loading
Personal Weather Stations






























Interactive Weather Map
Tropical Storm Tracking
New forecast layout! Learn more

10-Day Weather Forecast

Advertisements
Track Severe Weather on mobile